sensor_id;sensor_type;location;lat;lon;timestamp;pressure;altitude;pressure_sealevel;temperature;humidity
75172;BME280;63750;52.418;20.742;2024-02-26T00:01:35;99832.04;;;10.44;58.86
75172;BME280;63750;52.418;20.742;2024-02-26T00:04:03;99831.42;;;10.43;59.05
75172;BME280;63750;52.418;20.742;2024-02-26T00:06:31;99830.18;;;10.61;67.76
75172;BME280;63750;52.418;20.742;2024-02-26T00:09:00;99828.83;;;10.64;60.79
75172;BME280;63750;52.418;20.742;2024-02-26T00:11:28;99827.47;;;10.58;59.66
75172;BME280;63750;52.418;20.742;2024-02-26T00:13:56;99826.65;;;10.52;59.33
75172;BME280;63750;52.418;20.742;2024-02-26T00:16:24;99823.95;;;10.45;59.41
75172;BME280;63750;52.418;20.742;2024-02-26T00:18:52;99822.10;;;10.41;59.79
75172;BME280;63750;52.418;20.742;2024-02-26T00:21:20;99815.65;;;10.36;59.63
75172;BME280;63750;52.418;20.742;2024-02-26T00:23:50;99818.63;;;10.31;59.41
75172;BME280;63750;52.418;20.742;2024-02-26T00:26:18;99815.29;;;10.25;59.57
75172;BME280;63750;52.418;20.742;2024-02-26T00:28:46;99815.88;;;10.19;59.49
75172;BME280;63750;52.418;20.742;2024-02-26T00:31:14;99810.13;;;10.14;59.47
75172;BME280;63750;52.418;20.742;2024-02-26T00:33:43;99808.23;;;10.10;59.64
75172;BME280;63750;52.418;20.742;2024-02-26T00:36:11;99805.66;;;10.07;60.00
75172;BME280;63750;52.418;20.742;2024-02-26T00:38:39;99807.68;;;10.05;59.58
75172;BME280;63750;52.418;20.742;2024-02-26T00:41:07;99801.13;;;10.01;59.52
75172;BME280;63750;52.418;20.742;2024-02-26T00:43:35;99809.77;;;9.99;59.97
75172;BME280;63750;52.418;20.742;2024-02-26T00:46:04;99805.41;;;9.93;59.48
75172;BME280;63750;52.418;20.742;2024-02-26T00:48:32;99806.34;;;9.87;59.55
75172;BME280;63750;52.418;20.742;2024-02-26T00:51:00;99802.80;;;9.84;59.82
75172;BME280;63750;52.418;20.742;2024-02-26T00:53:28;99801.27;;;9.81;59.75
75172;BME280;63750;52.418;20.742;2024-02-26T00:55:56;99796.40;;;9.79;59.57
75172;BME280;63750;52.418;20.742;2024-02-26T00:58:24;99799.21;;;9.73;59.26
75172;BME280;63750;52.418;20.742;2024-02-26T01:00:53;99797.66;;;9.67;59.06
75172;BME280;63750;52.418;20.742;2024-02-26T01:03:21;99797.66;;;9.64;59.17
75172;BME280;63750;52.418;20.742;2024-02-26T01:05:49;99798.82;;;9.57;59.56
75172;BME280;63750;52.418;20.742;2024-02-26T01:08:17;99797.32;;;9.52;59.08
75172;BME280;63750;52.418;20.742;2024-02-26T01:10:45;99803.96;;;9.47;58.80
75172;BME280;63750;52.418;20.742;2024-02-26T01:13:13;99802.55;;;9.42;59.19
75172;BME280;63750;52.418;20.742;2024-02-26T01:15:42;99797.48;;;9.37;59.10
75172;BME280;63750;52.418;20.742;2024-02-26T01:18:10;99798.22;;;9.33;59.28
75172;BME280;63750;52.418;20.742;2024-02-26T01:20:38;99799.85;;;9.29;58.83
75172;BME280;63750;52.418;20.742;2024-02-26T01:23:06;99797.19;;;9.22;59.44
75172;BME280;63750;52.418;20.742;2024-02-26T01:25:34;99799.35;;;9.14;59.36
75172;BME280;63750;52.418;20.742;2024-02-26T01:28:05;99805.42;;;9.07;58.93
75172;BME280;63750;52.418;20.742;2024-02-26T01:30:34;99806.30;;;9.02;59.48
75172;BME280;63750;52.418;20.742;2024-02-26T01:33:02;99811.10;;;8.96;59.46
75172;BME280;63750;52.418;20.742;2024-02-26T01:35:30;99812.27;;;8.91;59.36
75172;BME280;63750;52.418;20.742;2024-02-26T01:37:58;99813.00;;;8.86;59.69
75172;BME280;63750;52.418;20.742;2024-02-26T01:40:28;99809.20;;;8.83;60.10
75172;BME280;63750;52.418;20.742;2024-02-26T01:42:57;99807.89;;;8.80;59.82
75172;BME280;63750;52.418;20.742;2024-02-26T01:45:25;99805.77;;;8.76;60.13
75172;BME280;63750;52.418;20.742;2024-02-26T01:47:54;99807.08;;;8.74;60.06
75172;BME280;63750;52.418;20.742;2024-02-26T01:50:23;99805.11;;;8.72;60.17
75172;BME280;63750;52.418;20.742;2024-02-26T01:52:52;99803.52;;;8.72;60.41
75172;BME280;63750;52.418;20.742;2024-02-26T01:55:22;99803.27;;;8.73;61.02
75172;BME280;63750;52.418;20.742;2024-02-26T01:57:52;99806.34;;;8.74;61.39
75172;BME280;63750;52.418;20.742;2024-02-26T02:00:22;99807.57;;;8.74;61.29
75172;BME280;63750;52.418;20.742;2024-02-26T02:02:51;99813.98;;;8.74;61.27
75172;BME280;63750;52.418;20.742;2024-02-26T02:05:21;99814.50;;;8.72;61.27
75172;BME280;63750;52.418;20.742;2024-02-26T02:07:50;99813.41;;;8.74;61.63
75172;BME280;63750;52.418;20.742;2024-02-26T02:10:18;99813.81;;;8.73;61.21
75172;BME280;63750;52.418;20.742;2024-02-26T02:12:47;99816.71;;;8.71;61.33
75172;BME280;63750;52.418;20.742;2024-02-26T02:15:15;99810.50;;;8.71;62.26
75172;BME280;63750;52.418;20.742;2024-02-26T02:17:43;99810.91;;;8.71;61.83
75172;BME280;63750;52.418;20.742;2024-02-26T02:20:16;99811.58;;;8.69;61.75
75172;BME280;63750;52.418;20.742;2024-02-26T02:22:45;99815.15;;;8.69;61.34
75172;BME280;63750;52.418;20.742;2024-02-26T02:25:13;99815.24;;;8.66;61.05
75172;BME280;63750;52.418;20.742;2024-02-26T02:27:44;99817.27;;;8.63;61.00
75172;BME280;63750;52.418;20.742;2024-02-26T02:30:13;99818.20;;;8.62;61.84
75172;BME280;63750;52.418;20.742;2024-02-26T02:32:41;99818.81;;;8.63;61.59
75172;BME280;63750;52.418;20.742;2024-02-26T02:35:10;99824.76;;;8.64;61.37
75172;BME280;63750;52.418;20.742;2024-02-26T02:37:38;99830.59;;;8.62;60.50
75172;BME280;63750;52.418;20.742;2024-02-26T02:40:08;99829.95;;;8.57;60.73
75172;BME280;63750;52.418;20.742;2024-02-26T02:42:36;99826.14;;;8.55;60.86
75172;BME280;63750;52.418;20.742;2024-02-26T02:45:05;99829.39;;;8.52;60.84
75172;BME280;63750;52.418;20.742;2024-02-26T02:47:37;99826.55;;;8.52;61.35
75172;BME280;63750;52.418;20.742;2024-02-26T02:50:06;99825.72;;;8.51;61.07
75172;BME280;63750;52.418;20.742;2024-02-26T02:52:34;99824.98;;;8.50;61.47
75172;BME280;63750;52.418;20.742;2024-02-26T02:55:03;99828.64;;;8.46;60.91
75172;BME280;63750;52.418;20.742;2024-02-26T02:57:31;99823.13;;;8.43;60.81
75172;BME280;63750;52.418;20.742;2024-02-26T03:00:00;99823.76;;;8.40;60.47
75172;BME280;63750;52.418;20.742;2024-02-26T03:02:28;99826.46;;;8.35;60.21
75172;BME280;63750;52.418;20.742;2024-02-26T03:04:56;99823.55;;;8.30;60.17
75172;BME280;63750;52.418;20.742;2024-02-26T03:07:24;99821.15;;;8.25;60.15
75172;BME280;63750;52.418;20.742;2024-02-26T03:09:53;99819.80;;;8.23;60.57
75172;BME280;63750;52.418;20.742;2024-02-26T03:12:21;99821.65;;;8.20;60.55
75172;BME280;63750;52.418;20.742;2024-02-26T03:14:49;99821.48;;;8.15;60.40
75172;BME280;63750;52.418;20.742;2024-02-26T03:17:17;99827.58;;;8.10;60.38
75172;BME280;63750;52.418;20.742;2024-02-26T03:19:46;99829.33;;;8.06;60.89
75172;BME280;63750;52.418;20.742;2024-02-26T03:22:14;99830.97;;;8.02;60.58
75172;BME280;63750;52.418;20.742;2024-02-26T03:24:42;99834.98;;;7.98;60.45
75172;BME280;63750;52.418;20.742;2024-02-26T03:27:10;99839.64;;;7.93;60.73
75172;BME280;63750;52.418;20.742;2024-02-26T03:29:39;99841.83;;;7.89;60.77
75172;BME280;63750;52.418;20.742;2024-02-26T03:32:08;99848.73;;;7.85;61.13
75172;BME280;63750;52.418;20.742;2024-02-26T03:34:36;99851.91;;;7.80;60.86
75172;BME280;63750;52.418;20.742;2024-02-26T03:37:04;99851.49;;;7.77;60.76
75172;BME280;63750;52.418;20.742;2024-02-26T03:39:33;99849.72;;;7.73;60.78
75172;BME280;63750;52.418;20.742;2024-02-26T03:42:01;99853.21;;;7.67;60.90
75172;BME280;63750;52.418;20.742;2024-02-26T03:44:29;99853.48;;;7.64;60.68
75172;BME280;63750;52.418;20.742;2024-02-26T03:46:57;99851.70;;;7.60;60.63
75172;BME280;63750;52.418;20.742;2024-02-26T03:49:25;99847.55;;;7.55;60.66
75172;BME280;63750;52.418;20.742;2024-02-26T03:51:53;99846.10;;;7.52;61.08
75172;BME280;63750;52.418;20.742;2024-02-26T03:54:21;99847.94;;;7.49;61.51
75172;BME280;63750;52.418;20.742;2024-02-26T03:56:49;99851.55;;;7.48;61.47
75172;BME280;63750;52.418;20.742;2024-02-26T03:59:18;99856.73;;;7.47;61.61
75172;BME280;63750;52.418;20.742;2024-02-26T04:01:47;99860.84;;;7.46;61.35
75172;BME280;63750;52.418;20.742;2024-02-26T04:04:16;99866.59;;;7.45;61.40
75172;BME280;63750;52.418;20.742;2024-02-26T04:06:46;99863.32;;;7.42;61.64
75172;BME280;63750;52.418;20.742;2024-02-26T04:09:15;99862.02;;;7.40;61.79
75172;BME280;63750;52.418;20.742;2024-02-26T04:11:44;99860.50;;;7.39;61.63
75172;BME280;63750;52.418;20.742;2024-02-26T04:14:12;99862.28;;;7.39;61.73
75172;BME280;63750;52.418;20.742;2024-02-26T04:16:40;99858.29;;;7.37;61.54
75172;BME280;63750;52.418;20.742;2024-02-26T04:19:08;99856.23;;;7.32;61.69
75172;BME280;63750;52.418;20.742;2024-02-26T04:21:36;99856.05;;;7.28;61.90
75172;BME280;63750;52.418;20.742;2024-02-26T04:24:05;99858.39;;;7.27;62.22
75172;BME280;63750;52.418;20.742;2024-02-26T04:26:33;99858.05;;;7.29;62.13
75172;BME280;63750;52.418;20.742;2024-02-26T04:29:01;99853.16;;;7.30;62.37
75172;BME280;63750;52.418;20.742;2024-02-26T04:31:29;99853.46;;;7.29;62.11
75172;BME280;63750;52.418;20.742;2024-02-26T04:33:57;99853.09;;;7.27;61.70
75172;BME280;63750;52.418;20.742;2024-02-26T04:36:26;99857.40;;;7.26;61.68
75172;BME280;63750;52.418;20.742;2024-02-26T04:38:54;99858.59;;;7.25;61.56
75172;BME280;63750;52.418;20.742;2024-02-26T04:41:22;99855.65;;;7.24;61.26
75172;BME280;63750;52.418;20.742;2024-02-26T04:43:50;99854.20;;;7.22;61.34
75172;BME280;63750;52.418;20.742;2024-02-26T04:46:18;99854.75;;;7.20;61.50
75172;BME280;63750;52.418;20.742;2024-02-26T04:48:46;99851.15;;;7.17;61.30
75172;BME280;63750;52.418;20.742;2024-02-26T04:51:14;99854.08;;;7.14;61.61
75172;BME280;63750;52.418;20.742;2024-02-26T04:53:43;99855.07;;;7.12;62.07
75172;BME280;63750;52.418;20.742;2024-02-26T04:56:11;99851.70;;;7.10;62.14
75172;BME280;63750;52.418;20.742;2024-02-26T04:58:39;99851.67;;;7.11;61.97
75172;BME280;63750;52.418;20.742;2024-02-26T05:01:07;99856.45;;;7.10;61.72
75172;BME280;63750;52.418;20.742;2024-02-26T05:03:35;99853.99;;;7.08;61.61
75172;BME280;63750;52.418;20.742;2024-02-26T05:06:04;99851.30;;;7.09;61.48
75172;BME280;63750;52.418;20.742;2024-02-26T05:08:33;99849.29;;;7.08;61.58
75172;BME280;63750;52.418;20.742;2024-02-26T05:11:01;99850.34;;;7.08;61.57
75172;BME280;63750;52.418;20.742;2024-02-26T05:13:29;99845.55;;;7.10;61.39
75172;BME280;63750;52.418;20.742;2024-02-26T05:15:57;99846.22;;;7.11;61.55
75172;BME280;63750;52.418;20.742;2024-02-26T05:18:25;99847.33;;;7.10;61.57
75172;BME280;63750;52.418;20.742;2024-02-26T05:20:53;99844.65;;;7.08;61.22
75172;BME280;63750;52.418;20.742;2024-02-26T05:23:22;99844.53;;;7.05;61.44
75172;BME280;63750;52.418;20.742;2024-02-26T05:25:50;99847.63;;;7.02;61.85
75172;BME280;63750;52.418;20.742;2024-02-26T05:28:18;99849.52;;;7.00;62.35
75172;BME280;63750;52.418;20.742;2024-02-26T05:30:47;99851.83;;;7.00;62.90
75172;BME280;63750;52.418;20.742;2024-02-26T05:33:15;99851.05;;;7.01;62.80
75172;BME280;63750;52.418;20.742;2024-02-26T05:35:43;99856.89;;;7.03;62.88
75172;BME280;63750;52.418;20.742;2024-02-26T05:38:11;99863.37;;;7.03;62.77
75172;BME280;63750;52.418;20.742;2024-02-26T05:40:39;99864.91;;;7.06;62.87
75172;BME280;63750;52.418;20.742;2024-02-26T05:43:07;99870.11;;;7.09;62.56
75172;BME280;63750;52.418;20.742;2024-02-26T05:45:35;99874.08;;;7.08;62.48
75172;BME280;63750;52.418;20.742;2024-02-26T05:48:04;99874.61;;;7.06;62.34
75172;BME280;63750;52.418;20.742;2024-02-26T05:50:32;99883.47;;;7.05;62.42
75172;BME280;63750;52.418;20.742;2024-02-26T05:53:01;99885.80;;;7.02;62.32
75172;BME280;63750;52.418;20.742;2024-02-26T05:55:29;99886.29;;;7.01;62.15
75172;BME280;63750;52.418;20.742;2024-02-26T05:57:57;99890.52;;;6.99;62.07
75172;BME280;63750;52.418;20.742;2024-02-26T06:00:25;99889.77;;;6.99;62.05
75172;BME280;63750;52.418;20.742;2024-02-26T06:02:53;99892.44;;;7.01;62.13
75172;BME280;63750;52.418;20.742;2024-02-26T06:05:21;99890.10;;;7.04;62.19
75172;BME280;63750;52.418;20.742;2024-02-26T06:07:56;99891.23;;;7.05;62.15
75172;BME280;63750;52.418;20.742;2024-02-26T06:10:24;99889.82;;;7.05;62.25
75172;BME280;63750;52.418;20.742;2024-02-26T06:12:52;99893.15;;;7.05;62.44
75172;BME280;63750;52.418;20.742;2024-02-26T06:15:20;99896.54;;;7.07;62.54
75172;BME280;63750;52.418;20.742;2024-02-26T06:17:48;99904.22;;;7.08;62.35
75172;BME280;63750;52.418;20.742;2024-02-26T06:20:16;99904.16;;;7.11;62.45
75172;BME280;63750;52.418;20.742;2024-02-26T06:22:44;99907.53;;;7.15;62.41
75172;BME280;63750;52.418;20.742;2024-02-26T06:25:13;99907.87;;;7.17;62.50
75172;BME280;63750;52.418;20.742;2024-02-26T06:27:41;99913.87;;;7.19;62.47
75172;BME280;63750;52.418;20.742;2024-02-26T06:30:10;99915.48;;;7.23;62.45
75172;BME280;63750;52.418;20.742;2024-02-26T06:32:39;99911.66;;;7.28;62.59
75172;BME280;63750;52.418;20.742;2024-02-26T06:35:08;99914.83;;;7.37;62.85
75172;BME280;63750;52.418;20.742;2024-02-26T06:37:36;99915.52;;;7.45;62.80
75172;BME280;63750;52.418;20.742;2024-02-26T06:40:06;99914.98;;;7.54;63.09
75172;BME280;63750;52.418;20.742;2024-02-26T06:42:35;99912.70;;;7.64;63.06
75172;BME280;63750;52.418;20.742;2024-02-26T06:45:03;99916.31;;;7.73;63.04
75172;BME280;63750;52.418;20.742;2024-02-26T06:47:31;99921.53;;;7.78;63.03
75172;BME280;63750;52.418;20.742;2024-02-26T06:50:00;99920.40;;;7.79;63.00
75172;BME280;63750;52.418;20.742;2024-02-26T06:52:28;99921.85;;;7.83;63.12
75172;BME280;63750;52.418;20.742;2024-02-26T06:54:56;99921.80;;;7.86;62.77
75172;BME280;63750;52.418;20.742;2024-02-26T06:57:24;99924.16;;;7.87;62.86
75172;BME280;63750;52.418;20.742;2024-02-26T06:59:52;99929.38;;;7.88;62.82
75172;BME280;63750;52.418;20.742;2024-02-26T07:02:20;99927.70;;;7.89;62.86
75172;BME280;63750;52.418;20.742;2024-02-26T07:04:48;99928.94;;;7.89;62.89
75172;BME280;63750;52.418;20.742;2024-02-26T07:07:16;99934.70;;;7.90;62.83
75172;BME280;63750;52.418;20.742;2024-02-26T07:09:44;99937.33;;;7.90;62.83
75172;BME280;63750;52.418;20.742;2024-02-26T07:12:12;99939.14;;;7.93;63.16
75172;BME280;63750;52.418;20.742;2024-02-26T07:14:41;99942.94;;;7.98;63.15
75172;BME280;63750;52.418;20.742;2024-02-26T07:17:09;99942.85;;;8.01;63.21
75172;BME280;63750;52.418;20.742;2024-02-26T07:19:37;99941.30;;;8.05;63.84
75172;BME280;63750;52.418;20.742;2024-02-26T07:22:05;99943.23;;;8.09;63.44
75172;BME280;63750;52.418;20.742;2024-02-26T07:24:33;99940.61;;;8.13;63.51
75172;BME280;63750;52.418;20.742;2024-02-26T07:27:01;99938.86;;;8.21;63.72
75172;BME280;63750;52.418;20.742;2024-02-26T07:29:29;99933.73;;;8.30;63.87
75172;BME280;63750;52.418;20.742;2024-02-26T07:31:57;99936.58;;;8.35;64.30
75172;BME280;63750;52.418;20.742;2024-02-26T07:34:26;99937.48;;;8.47;64.15
75172;BME280;63750;52.418;20.742;2024-02-26T07:36:54;99936.77;;;8.58;64.16
75172;BME280;63750;52.418;20.742;2024-02-26T07:39:22;99935.86;;;8.71;64.29
75172;BME280;63750;52.418;20.742;2024-02-26T07:41:50;99933.39;;;8.87;64.38
75172;BME280;63750;52.418;20.742;2024-02-26T07:44:18;99931.31;;;9.04;64.77
75172;BME280;63750;52.418;20.742;2024-02-26T07:46:46;99935.47;;;9.15;65.24
75172;BME280;63750;52.418;20.742;2024-02-26T07:49:15;99936.75;;;9.28;65.02
75172;BME280;63750;52.418;20.742;2024-02-26T07:51:43;99937.31;;;9.43;64.78
75172;BME280;63750;52.418;20.742;2024-02-26T07:54:11;99935.93;;;9.60;65.14
75172;BME280;63750;52.418;20.742;2024-02-26T07:56:39;99936.88;;;9.78;64.82
75172;BME280;63750;52.418;20.742;2024-02-26T07:59:07;99940.58;;;9.92;64.82
75172;BME280;63750;52.418;20.742;2024-02-26T08:01:35;99943.09;;;10.03;64.46
75172;BME280;63750;52.418;20.742;2024-02-26T08:04:04;99944.77;;;10.11;64.46
75172;BME280;63750;52.418;20.742;2024-02-26T08:06:32;99941.33;;;10.21;64.19
75172;BME280;63750;52.418;20.742;2024-02-26T08:09:00;99938.85;;;10.33;64.45
75172;BME280;63750;52.418;20.742;2024-02-26T08:11:28;99941.92;;;10.47;64.00
75172;BME280;63750;52.418;20.742;2024-02-26T08:13:56;99944.93;;;10.59;64.29
75172;BME280;63750;52.418;20.742;2024-02-26T08:16:24;99948.89;;;10.72;64.00
75172;BME280;63750;52.418;20.742;2024-02-26T08:18:52;99949.83;;;10.85;63.78
75172;BME280;63750;52.418;20.742;2024-02-26T08:21:21;99952.71;;;11.03;63.52
75172;BME280;63750;52.418;20.742;2024-02-26T08:23:49;99961.40;;;11.23;63.29
75172;BME280;63750;52.418;20.742;2024-02-26T08:26:17;99963.95;;;11.40;63.03
75172;BME280;63750;52.418;20.742;2024-02-26T08:28:45;99959.27;;;11.55;62.22
75172;BME280;63750;52.418;20.742;2024-02-26T08:31:13;99959.02;;;11.68;61.78
75172;BME280;63750;52.418;20.742;2024-02-26T08:33:41;99957.52;;;11.78;61.23
75172;BME280;63750;52.418;20.742;2024-02-26T08:36:11;99957.25;;;11.91;60.62
75172;BME280;63750;52.418;20.742;2024-02-26T08:38:43;99957.75;;;12.07;60.25
75172;BME280;63750;52.418;20.742;2024-02-26T08:41:13;99964.65;;;12.19;60.06
75172;BME280;63750;52.418;20.742;2024-02-26T08:43:41;99960.59;;;12.29;60.10
75172;BME280;63750;52.418;20.742;2024-02-26T08:46:11;99960.21;;;12.43;59.44
75172;BME280;63750;52.418;20.742;2024-02-26T08:48:41;99965.59;;;12.55;59.42
75172;BME280;63750;52.418;20.742;2024-02-26T08:51:10;99966.98;;;12.68;59.41
75172;BME280;63750;52.418;20.742;2024-02-26T08:53:38;99966.96;;;12.82;58.88
75172;BME280;63750;52.418;20.742;2024-02-26T08:56:07;99966.95;;;12.97;58.82
75172;BME280;63750;52.418;20.742;2024-02-26T08:58:35;99968.63;;;13.12;58.28
75172;BME280;63750;52.418;20.742;2024-02-26T09:01:04;99966.29;;;13.27;57.72
75172;BME280;63750;52.418;20.742;2024-02-26T09:03:32;99969.27;;;13.40;57.80
75172;BME280;63750;52.418;20.742;2024-02-26T09:06:03;99974.27;;;13.54;57.49
75172;BME280;63750;52.418;20.742;2024-02-26T09:08:32;99972.77;;;13.64;57.24
75172;BME280;63750;52.418;20.742;2024-02-26T09:11:00;99973.90;;;13.85;56.80
75172;BME280;63750;52.418;20.742;2024-02-26T09:13:29;99972.25;;;14.02;56.50
75172;BME280;63750;52.418;20.742;2024-02-26T09:15:57;99970.52;;;14.21;55.81
75172;BME280;63750;52.418;20.742;2024-02-26T09:18:26;99973.44;;;14.37;55.46
75172;BME280;63750;52.418;20.742;2024-02-26T09:20:57;99977.05;;;14.56;54.98
75172;BME280;63750;52.418;20.742;2024-02-26T09:23:25;99974.20;;;14.68;54.43
75172;BME280;63750;52.418;20.742;2024-02-26T09:25:53;99971.73;;;14.84;54.05
75172;BME280;63750;52.418;20.742;2024-02-26T09:28:21;99969.69;;;14.96;53.63
75172;BME280;63750;52.418;20.742;2024-02-26T09:30:50;99965.80;;;15.10;53.37
75172;BME280;63750;52.418;20.742;2024-02-26T09:33:18;99959.30;;;15.30;53.08
75172;BME280;63750;52.418;20.742;2024-02-26T09:35:46;99957.30;;;15.50;52.95
75172;BME280;63750;52.418;20.742;2024-02-26T09:38:14;99960.95;;;15.72;52.50
75172;BME280;63750;52.418;20.742;2024-02-26T09:40:42;99963.17;;;15.91;51.76
75172;BME280;63750;52.418;20.742;2024-02-26T09:43:14;99965.15;;;16.12;51.43
75172;BME280;63750;52.418;20.742;2024-02-26T09:45:43;99965.95;;;16.36;51.18
75172;BME280;63750;52.418;20.742;2024-02-26T09:48:18;99970.09;;;16.58;50.29
75172;BME280;63750;52.418;20.742;2024-02-26T09:50:47;99969.04;;;16.70;49.36
75172;BME280;63750;52.418;20.742;2024-02-26T09:53:15;99970.41;;;16.83;48.59
75172;BME280;63750;52.418;20.742;2024-02-26T09:55:46;99967.04;;;17.01;48.42
75172;BME280;63750;52.418;20.742;2024-02-26T09:58:15;99973.41;;;17.13;48.41
75172;BME280;63750;52.418;20.742;2024-02-26T10:00:45;99972.27;;;17.29;48.02
75172;BME280;63750;52.418;20.742;2024-02-26T10:03:15;99970.89;;;17.50;48.02
75172;BME280;63750;52.418;20.742;2024-02-26T10:05:44;99972.30;;;17.73;47.84
75172;BME280;63750;52.418;20.742;2024-02-26T10:08:13;99975.56;;;17.97;47.38
75172;BME280;63750;52.418;20.742;2024-02-26T10:10:42;99975.08;;;18.15;47.08
75172;BME280;63750;52.418;20.742;2024-02-26T10:13:10;99974.16;;;18.23;45.95
75172;BME280;63750;52.418;20.742;2024-02-26T10:15:39;99972.71;;;18.32;46.04
75172;BME280;63750;52.418;20.742;2024-02-26T10:18:07;99974.19;;;18.34;45.72
75172;BME280;63750;52.418;20.742;2024-02-26T10:20:35;99972.64;;;18.38;45.67
75172;BME280;63750;52.418;20.742;2024-02-26T10:23:05;99971.32;;;18.37;45.45
75172;BME280;63750;52.418;20.742;2024-02-26T10:25:33;99970.09;;;18.41;44.97
75172;BME280;63750;52.418;20.742;2024-02-26T10:28:02;99971.69;;;18.51;45.27
75172;BME280;63750;52.418;20.742;2024-02-26T10:30:31;99971.61;;;18.76;44.94
75172;BME280;63750;52.418;20.742;2024-02-26T10:33:00;99968.98;;;18.90;44.51
75172;BME280;63750;52.418;20.742;2024-02-26T10:35:28;99967.58;;;18.92;44.53
75172;BME280;63750;52.418;20.742;2024-02-26T10:37:58;99970.77;;;19.03;44.15
75172;BME280;63750;52.418;20.742;2024-02-26T10:40:26;99964.23;;;19.05;43.66
75172;BME280;63750;52.418;20.742;2024-02-26T10:42:54;99967.19;;;18.96;43.87
75172;BME280;63750;52.418;20.742;2024-02-26T10:45:22;99969.95;;;18.85;44.40
75172;BME280;63750;52.418;20.742;2024-02-26T10:47:51;99972.88;;;18.72;44.67
75172;BME280;63750;52.418;20.742;2024-02-26T10:50:20;99972.04;;;18.72;44.78
75172;BME280;63750;52.418;20.742;2024-02-26T10:52:49;99971.85;;;18.83;47.50
75172;BME280;63750;52.418;20.742;2024-02-26T10:55:18;99964.04;;;18.83;48.82
75172;BME280;63750;52.418;20.742;2024-02-26T10:57:50;99963.53;;;18.85;51.44
75172;BME280;63750;52.418;20.742;2024-02-26T11:00:20;99961.36;;;18.82;48.98
75172;BME280;63750;52.418;20.742;2024-02-26T11:02:48;99964.84;;;18.76;50.80
75172;BME280;63750;52.418;20.742;2024-02-26T11:05:19;99958.42;;;18.81;49.95
75172;BME280;63750;52.418;20.742;2024-02-26T11:07:48;99959.89;;;18.97;50.55
75172;BME280;63750;52.418;20.742;2024-02-26T11:10:18;99961.67;;;19.11;48.43
75172;BME280;63750;52.418;20.742;2024-02-26T11:12:47;99962.10;;;19.27;47.42
75172;BME280;63750;52.418;20.742;2024-02-26T11:15:16;99961.67;;;19.24;46.62
75172;BME280;63750;52.418;20.742;2024-02-26T11:17:45;99959.54;;;19.13;47.36
75172;BME280;63750;52.418;20.742;2024-02-26T11:20:15;99961.56;;;19.22;47.00
75172;BME280;63750;52.418;20.742;2024-02-26T11:22:43;99954.92;;;19.37;47.47
75172;BME280;63750;52.418;20.742;2024-02-26T11:25:12;99956.89;;;19.59;47.29
75172;BME280;63750;52.418;20.742;2024-02-26T11:27:44;99956.91;;;19.68;45.80
75172;BME280;63750;52.418;20.742;2024-02-26T11:30:16;99957.58;;;19.76;46.10
75172;BME280;63750;52.418;20.742;2024-02-26T11:32:47;99955.84;;;19.93;45.65
75172;BME280;63750;52.418;20.742;2024-02-26T11:35:16;99959.15;;;19.98;45.59
75172;BME280;63750;52.418;20.742;2024-02-26T11:37:52;99964.42;;;19.92;45.76
75172;BME280;63750;52.418;20.742;2024-02-26T11:40:21;99967.32;;;20.03;45.82
75172;BME280;63750;52.418;20.742;2024-02-26T11:42:49;99965.39;;;19.97;45.37
75172;BME280;63750;52.418;20.742;2024-02-26T11:45:51;99969.31;;;19.92;45.75
75172;BME280;63750;52.418;20.742;2024-02-26T11:48:21;99977.95;;;20.02;45.68
75172;BME280;63750;52.418;20.742;2024-02-26T11:50:51;99977.20;;;19.96;45.24
75172;BME280;63750;52.418;20.742;2024-02-26T11:53:24;99975.63;;;20.02;45.51
75172;BME280;63750;52.418;20.742;2024-02-26T11:56:21;99973.17;;;20.14;45.54
75172;BME280;63750;52.418;20.742;2024-02-26T11:58:49;99978.31;;;20.32;45.25
75172;BME280;63750;52.418;20.742;2024-02-26T12:01:39;99978.77;;;20.34;44.52
75172;BME280;63750;52.418;20.742;2024-02-26T12:04:11;99974.52;;;20.15;44.48
75172;BME280;63750;52.418;20.742;2024-02-26T12:06:44;99973.91;;;20.34;44.71
75172;BME280;63750;52.418;20.742;2024-02-26T12:09:12;99977.89;;;20.53;44.04
75172;BME280;63750;52.418;20.742;2024-02-26T12:11:41;99983.94;;;20.54;43.63
75172;BME280;63750;52.418;20.742;2024-02-26T12:14:11;99981.42;;;20.48;42.95
75172;BME280;63750;52.418;20.742;2024-02-26T12:16:40;99986.22;;;20.43;42.99
75172;BME280;63750;52.418;20.742;2024-02-26T12:19:09;99981.91;;;20.50;43.29
75172;BME280;63750;52.418;20.742;2024-02-26T12:21:38;99986.02;;;20.56;42.90
75172;BME280;63750;52.418;20.742;2024-02-26T12:24:11;99983.30;;;20.63;42.78
75172;BME280;63750;52.418;20.742;2024-02-26T12:26:40;99977.60;;;20.65;42.55
75172;BME280;63750;52.418;20.742;2024-02-26T12:29:09;99981.29;;;20.73;42.70
75172;BME280;63750;52.418;20.742;2024-02-26T12:31:37;99985.36;;;20.83;42.15
75172;BME280;63750;52.418;20.742;2024-02-26T12:34:08;99983.06;;;20.99;42.23
75172;BME280;63750;52.418;20.742;2024-02-26T12:36:37;99983.83;;;21.16;41.38
75172;BME280;63750;52.418;20.742;2024-02-26T12:39:05;99989.86;;;21.15;41.41
75172;BME280;63750;52.418;20.742;2024-02-26T12:41:34;99988.69;;;21.22;41.35
75172;BME280;63750;52.418;20.742;2024-02-26T12:44:03;99986.82;;;21.29;41.05
75172;BME280;63750;52.418;20.742;2024-02-26T12:46:31;99985.36;;;21.38;40.68
75172;BME280;63750;52.418;20.742;2024-02-26T12:48:59;99983.38;;;21.50;40.91
75172;BME280;63750;52.418;20.742;2024-02-26T12:51:27;99976.44;;;21.63;40.04
75172;BME280;63750;52.418;20.742;2024-02-26T12:53:57;99978.20;;;21.77;39.69
75172;BME280;63750;52.418;20.742;2024-02-26T12:56:26;99977.41;;;21.87;39.26
75172;BME280;63750;52.418;20.742;2024-02-26T12:58:55;99975.18;;;21.85;39.41
75172;BME280;63750;52.418;20.742;2024-02-26T13:01:24;99981.07;;;22.02;39.40
75172;BME280;63750;52.418;20.742;2024-02-26T13:03:53;99983.61;;;22.15;38.76